• Join FlightAware (Why Join?)
  • Login
  • US Flag GB Flag 
08:38 EST


 

Airport Tracker/Info


-or-


 

Live Flight TrackerFlight Track Log ✈ SKW6492 ✈ 31-Aug-2013 ✈ KDEN - KCOD

Flight Track Log - Related Links

Times and Time Zones

All times are in EDT time to prevent confusion due to time zone crossing. See the SKW6492 flight status page for this flight to view local times or setup timezone preferences in your user account.

Time Position Orientation Groundspeed Altitude Reporting Facility
EDT Latitude Longitude Course Direction KTS MPH feet Rate Location/Type
21:40 39.9408 -104.6869 348° North 213 245 7,600  Level Denver Center
21:41 40.0142 -104.6672 12° North 263 303 9,200 1,740 Climbing Denver Center
21:42 40.1593 -104.7695 347° North  Level FlightAware Approximate
21:42 40.0936 -104.6669 360° North 292 336 11,200  Level Denver Center
21:43 40.2633 -104.8006 347° North  Level FlightAware Approximate
21:43 40.1833 -104.6908 349° North 304 350 13,100  Level Denver Center
21:44 40.3669 -104.8334 346° North  Level FlightAware Approximate
21:44 40.2683 -104.7133 349° North 314 361 14,900  Level Denver Center
21:45 40.4702 -104.8678 346° North  Level FlightAware Approximate
21:45 40.3556 -104.7358 349° North 320 368 16,800  Level Denver Center
21:46 40.5741 -104.8997 348° North  Level FlightAware Approximate
21:46 40.4469 -104.7594 349° North 337 388 17,800  Level Denver Center
21:47 40.5469 -104.7889 347° North 342 394 19,400 1,500 Climbing Denver Center
21:48 40.6414 -104.8125 349° North 346 398 20,900 1,380 Climbing Denver Center
21:50 40.7542 -104.8403 349° North 332 382 22,500 1,140 Climbing Denver Center
21:51 40.8450 -104.8808 341° North 343 395 23,500 960 Climbing Denver Center
21:52 40.9211 -104.9603 322° Northwest 347 399 24,500 960 Climbing Denver Center
21:53 40.9983 -105.0422 321° Northwest 354 407 25,500 720 Climbing Denver Center
21:54 41.0806 -105.1303 321° Northwest 360 414 26,000 240 Climbing Denver Center
21:55 41.1603 -105.2133 322° Northwest 377 434 26,000  Level Denver Center
21:56 41.2442 -105.3022 321° Northwest 398 458 26,000  Level Denver Center
21:57 41.3450 -105.4103 321° Northwest 412 474 26,000  Level Denver Center
21:58 41.4356 -105.5058 322° Northwest 428 493 26,000  Level Denver Center
21:59 41.5253 -105.6022 321° Northwest 432 497 26,000  Level Denver Center
22:00 41.6311 -105.7167 321° Northwest 436 502 26,000  Level Denver Center
22:01 41.7222 -105.8144 321° Northwest 438 504 26,000  Level Denver Center
22:02 41.8119 -105.9122 321° Northwest 431 496 26,000  Level Denver Center
22:03 41.9189 -106.0264 322° Northwest 438 504 26,000  Level Denver Center
22:04 42.0081 -106.1239 321° Northwest 433 498 26,000  Level Denver Center
22:05 42.0969 -106.2219 321° Northwest 431 496 26,000  Level Denver Center
22:06 42.2025 -106.3367 321° Northwest 436 502 26,000  Level Denver Center
22:07 42.2908 -106.4353 320° Northwest 431 496 26,000  Level Denver Center
22:08 42.3811 -106.5356 321° Northwest 436 502 26,000  Level Denver Center
22:09 42.4867 -106.6517 321° Northwest 437 503 26,000  Level Denver Center
22:10 42.5758 -106.7517 320° Northwest 435 501 26,000  Level Denver Center
22:11 42.6667 -106.8533 321° Northwest 440 506 26,000  Level Denver Center
22:12 42.7711 -106.9717 320° Northwest 438 504 26,000  Level Denver Center
22:13 42.8622 -107.0725 321° Northwest 439 505 26,000  Level Denver Center
22:14 42.9208 -107.1422 319° Northwest 439 505 26,000  Level Salt Lake Center
22:15 43.0147 -107.2486 320° Northwest 447 514 26,000  Level Salt Lake Center
22:16 43.1089 -107.3575 320° Northwest 445 512 26,000  Level Salt Lake Center
22:17 43.2033 -107.4650 320° Northwest 443 510 26,000  Level Salt Lake Center
22:18 43.3172 -107.5972 320° Northwest 446 513 26,000  Level Salt Lake Center
22:19 43.4108 -107.7069 320° Northwest 444 511 26,000  Level Salt Lake Center
22:20 43.5047 -107.8136 321° Northwest 438 504 26,000  Level Salt Lake Center
22:21 43.5986 -107.9225 320° Northwest 440 506 26,000  Level Salt Lake Center
22:22 43.6906 -108.0331 319° Northwest 439 505 26,000  Level Salt Lake Center
22:23 43.7828 -108.1419 320° Northwest 435 501 26,000 -840 Level Salt Lake Center
22:24 43.8675 -108.2192 327° Northwest 370 426 24,400 -2,040 Descending Salt Lake Center
22:25 43.9508 -108.2947 327° Northwest 358 412 21,900 -2,460 Descending Salt Lake Center
22:26 44.0314 -108.3658 328° Northwest 350 403 19,400 -2,400 Descending Salt Lake Center
22:27 44.1117 -108.4389 327° Northwest 346 398 17,100 -2,280 Descending Salt Lake Center
22:28 44.1911 -108.5097 327° Northwest 344 396 14,900 -2,100 Descending Salt Lake Center
22:29 44.2658 -108.5767 327° Northwest 335 386 12,900 -1,860 Descending Salt Lake Center
22:30 44.3389 -108.6422 327° Northwest 324 373 11,200 -1,620 Descending Salt Lake Center
22:31 44.4103 -108.7069 327° Northwest 316 364 9,700 -1,140 Descending Salt Lake Center
22:32 44.4792 -108.7689 327° Northwest 307 353 9,000 -360 Descending Salt Lake Center
22:33 44.5350 -108.8192 327° Northwest 275 316 9,000 -420 Level Salt Lake Center
22:34 44.5828 -108.8672 324° Northwest 239 275 8,200 -960 Descending Salt Lake Center
22:35 44.5717 -108.9361 257° West 218 251 7,100 -1,200 Descending Salt Lake Center
22:36 44.5414 -108.9864 230° Southwest 186 214 5,800 -1,320 Descending Salt Lake Center